sensor_id;sensor_type;location;lat;lon;timestamp;P1;durP1;ratioP1;P2;durP2;ratioP2
22955;SDS011;40888;48.148;11.526;2022-09-29T00:00:05;2.27;;;1.73;;
22955;SDS011;40888;48.148;11.526;2022-09-29T00:02:31;2.73;;;1.80;;
22955;SDS011;40888;48.148;11.526;2022-09-29T00:04:57;1.90;;;1.80;;
22955;SDS011;40888;48.148;11.526;2022-09-29T00:07:23;2.23;;;2.03;;
22955;SDS011;40888;48.148;11.526;2022-09-29T00:09:50;2.03;;;1.80;;
22955;SDS011;40888;48.148;11.526;2022-09-29T00:12:16;1.90;;;1.80;;
22955;SDS011;40888;48.148;11.526;2022-09-29T00:14:42;2.57;;;1.60;;
22955;SDS011;40888;48.148;11.526;2022-09-29T00:17:08;2.13;;;1.90;;
22955;SDS011;40888;48.148;11.526;2022-09-29T00:19:34;1.83;;;1.40;;
22955;SDS011;40888;48.148;11.526;2022-09-29T00:22:00;1.43;;;1.33;;
22955;SDS011;40888;48.148;11.526;2022-09-29T00:24:26;1.40;;;1.30;;
22955;SDS011;40888;48.148;11.526;2022-09-29T00:26:53;2.27;;;1.53;;
22955;SDS011;40888;48.148;11.526;2022-09-29T00:29:19;1.50;;;1.40;;
22955;SDS011;40888;48.148;11.526;2022-09-29T00:31:45;1.47;;;1.37;;
22955;SDS011;40888;48.148;11.526;2022-09-29T00:34:11;1.37;;;1.27;;
22955;SDS011;40888;48.148;11.526;2022-09-29T00:36:37;2.13;;;1.10;;
22955;SDS011;40888;48.148;11.526;2022-09-29T00:39:05;1.23;;;1.13;;
22955;SDS011;40888;48.148;11.526;2022-09-29T00:41:33;1.80;;;1.00;;
22955;SDS011;40888;48.148;11.526;2022-09-29T00:44:01;1.50;;;1.30;;
22955;SDS011;40888;48.148;11.526;2022-09-29T00:46:43;3.10;;;1.53;;
22955;SDS011;40888;48.148;11.526;2022-09-29T00:51:41;2.57;;;1.20;;
22955;SDS011;40888;48.148;11.526;2022-09-29T00:54:08;2.20;;;1.30;;
22955;SDS011;40888;48.148;11.526;2022-09-29T00:56:35;1.87;;;1.20;;
22955;SDS011;40888;48.148;11.526;2022-09-29T00:59:03;1.50;;;1.40;;
22955;SDS011;40888;48.148;11.526;2022-09-29T01:01:32;1.50;;;1.40;;
22955;SDS011;40888;48.148;11.526;2022-09-29T01:03:59;2.10;;;1.50;;
22955;SDS011;40888;48.148;11.526;2022-09-29T01:06:38;2.03;;;1.67;;
22955;SDS011;40888;48.148;11.526;2022-09-29T01:09:08;1.90;;;1.80;;
22955;SDS011;40888;48.148;11.526;2022-09-29T01:11:35;1.80;;;1.70;;
22955;SDS011;40888;48.148;11.526;2022-09-29T01:14:02;2.60;;;1.90;;
22955;SDS011;40888;48.148;11.526;2022-09-29T01:16:30;2.50;;;1.90;;
22955;SDS011;40888;48.148;11.526;2022-09-29T01:18:57;1.70;;;1.60;;
22955;SDS011;40888;48.148;11.526;2022-09-29T01:42:42;2.90;;;1.80;;
22955;SDS011;40888;48.148;11.526;2022-09-29T01:47:49;1.90;;;1.80;;
22955;SDS011;40888;48.148;11.526;2022-09-29T01:50:22;2.60;;;1.77;;
22955;SDS011;40888;48.148;11.526;2022-09-29T01:52:51;1.53;;;1.43;;
22955;SDS011;40888;48.148;11.526;2022-09-29T01:55:19;1.67;;;1.57;;
22955;SDS011;40888;48.148;11.526;2022-09-29T01:57:50;2.90;;;1.87;;
22955;SDS011;40888;48.148;11.526;2022-09-29T02:00:17;2.10;;;2.00;;
22955;SDS011;40888;48.148;11.526;2022-09-29T02:06:02;2.53;;;2.33;;
22955;SDS011;40888;48.148;11.526;2022-09-29T02:08:19;2.43;;;2.23;;
22955;SDS011;40888;48.148;11.526;2022-09-29T02:13:17;2.67;;;2.33;;
22955;SDS011;40888;48.148;11.526;2022-09-29T02:15:45;1.87;;;1.77;;
22955;SDS011;40888;48.148;11.526;2022-09-29T02:18:15;2.70;;;2.50;;
22955;SDS011;40888;48.148;11.526;2022-09-29T02:20:44;2.97;;;2.30;;
22955;SDS011;40888;48.148;11.526;2022-09-29T02:23:11;3.03;;;2.40;;
22955;SDS011;40888;48.148;11.526;2022-09-29T02:25:37;2.73;;;2.53;;
22955;SDS011;40888;48.148;11.526;2022-09-29T02:28:05;2.70;;;2.50;;
22955;SDS011;40888;48.148;11.526;2022-09-29T02:30:32;3.10;;;2.67;;
22955;SDS011;40888;48.148;11.526;2022-09-29T02:32:58;3.03;;;1.90;;
22955;SDS011;40888;48.148;11.526;2022-09-29T02:35:25;2.30;;;2.03;;
22955;SDS011;40888;48.148;11.526;2022-09-29T02:55:36;2.13;;;1.97;;
22955;SDS011;40888;48.148;11.526;2022-09-29T02:58:13;2.93;;;2.17;;
22955;SDS011;40888;48.148;11.526;2022-09-29T03:00:40;2.27;;;2.07;;
22955;SDS011;40888;48.148;11.526;2022-09-29T03:03:06;1.97;;;1.83;;
22955;SDS011;40888;48.148;11.526;2022-09-29T03:05:32;2.57;;;2.07;;
22955;SDS011;40888;48.148;11.526;2022-09-29T03:07:59;2.00;;;1.90;;
22955;SDS011;40888;48.148;11.526;2022-09-29T03:10:25;2.33;;;2.13;;
22955;SDS011;40888;48.148;11.526;2022-09-29T03:12:51;2.53;;;1.90;;
22955;SDS011;40888;48.148;11.526;2022-09-29T03:15:17;3.43;;;2.00;;
22955;SDS011;40888;48.148;11.526;2022-09-29T03:17:44;1.90;;;1.80;;
22955;SDS011;40888;48.148;11.526;2022-09-29T03:20:10;2.13;;;2.03;;
22955;SDS011;40888;48.148;11.526;2022-09-29T03:22:36;2.63;;;2.07;;
22955;SDS011;40888;48.148;11.526;2022-09-29T03:25:03;2.57;;;2.37;;
22955;SDS011;40888;48.148;11.526;2022-09-29T03:27:30;2.43;;;2.20;;
22955;SDS011;40888;48.148;11.526;2022-09-29T03:29:57;2.10;;;2.00;;
22955;SDS011;40888;48.148;11.526;2022-09-29T03:32:23;3.27;;;2.97;;
22955;SDS011;40888;48.148;11.526;2022-09-29T03:34:49;3.47;;;3.17;;
22955;SDS011;40888;48.148;11.526;2022-09-29T03:37:15;3.60;;;3.40;;
22955;SDS011;40888;48.148;11.526;2022-09-29T03:39:42;3.00;;;2.80;;
22955;SDS011;40888;48.148;11.526;2022-09-29T03:42:08;3.10;;;2.90;;
22955;SDS011;40888;48.148;11.526;2022-09-29T03:44:34;2.87;;;2.67;;
22955;SDS011;40888;48.148;11.526;2022-09-29T03:47:00;3.13;;;2.73;;
22955;SDS011;40888;48.148;11.526;2022-09-29T03:49:26;2.97;;;2.77;;
22955;SDS011;40888;48.148;11.526;2022-09-29T03:51:52;3.23;;;3.03;;
22955;SDS011;40888;48.148;11.526;2022-09-29T03:54:18;3.70;;;3.13;;
22955;SDS011;40888;48.148;11.526;2022-09-29T03:56:45;3.10;;;2.90;;
22955;SDS011;40888;48.148;11.526;2022-09-29T03:59:11;2.80;;;2.60;;
22955;SDS011;40888;48.148;11.526;2022-09-29T04:01:39;3.00;;;2.70;;
22955;SDS011;40888;48.148;11.526;2022-09-29T04:04:05;4.27;;;2.77;;
22955;SDS011;40888;48.148;11.526;2022-09-29T04:06:31;3.27;;;2.60;;
22955;SDS011;40888;48.148;11.526;2022-09-29T04:08:58;2.40;;;2.20;;
22955;SDS011;40888;48.148;11.526;2022-09-29T04:11:24;2.60;;;2.40;;
22955;SDS011;40888;48.148;11.526;2022-09-29T04:13:50;2.03;;;1.93;;
22955;SDS011;40888;48.148;11.526;2022-09-29T04:16:16;2.03;;;1.93;;
22955;SDS011;40888;48.148;11.526;2022-09-29T04:18:42;2.20;;;2.00;;
22955;SDS011;40888;48.148;11.526;2022-09-29T04:21:10;2.23;;;2.03;;
22955;SDS011;40888;48.148;11.526;2022-09-29T04:23:36;1.90;;;1.80;;
22955;SDS011;40888;48.148;11.526;2022-09-29T04:26:02;2.10;;;1.97;;
22955;SDS011;40888;48.148;11.526;2022-09-29T04:28:32;1.90;;;1.70;;
22955;SDS011;40888;48.148;11.526;2022-09-29T04:30:59;2.10;;;1.90;;
22955;SDS011;40888;48.148;11.526;2022-09-29T04:33:25;2.70;;;2.23;;
22955;SDS011;40888;48.148;11.526;2022-09-29T04:35:52;2.13;;;1.80;;
22955;SDS011;40888;48.148;11.526;2022-09-29T04:38:18;3.40;;;2.00;;
22955;SDS011;40888;48.148;11.526;2022-09-29T04:40:44;3.33;;;1.97;;
22955;SDS011;40888;48.148;11.526;2022-09-29T04:43:10;5.47;;;2.47;;
22955;SDS011;40888;48.148;11.526;2022-09-29T04:45:36;2.73;;;1.90;;
22955;SDS011;40888;48.148;11.526;2022-09-29T04:48:02;4.20;;;2.10;;
22955;SDS011;40888;48.148;11.526;2022-09-29T04:50:29;4.73;;;2.50;;
22955;SDS011;40888;48.148;11.526;2022-09-29T04:52:55;4.10;;;2.23;;
22955;SDS011;40888;48.148;11.526;2022-09-29T04:55:21;2.23;;;2.03;;
22955;SDS011;40888;48.148;11.526;2022-09-29T04:57:47;4.67;;;2.20;;
22955;SDS011;40888;48.148;11.526;2022-09-29T05:00:14;3.47;;;2.17;;
22955;SDS011;40888;48.148;11.526;2022-09-29T05:02:40;3.07;;;2.30;;
22955;SDS011;40888;48.148;11.526;2022-09-29T05:05:07;2.50;;;2.17;;
22955;SDS011;40888;48.148;11.526;2022-09-29T05:07:34;3.67;;;2.20;;
22955;SDS011;40888;48.148;11.526;2022-09-29T05:10:00;3.30;;;2.10;;
22955;SDS011;40888;48.148;11.526;2022-09-29T05:12:26;2.67;;;1.80;;
22955;SDS011;40888;48.148;11.526;2022-09-29T05:14:53;2.73;;;2.17;;
22955;SDS011;40888;48.148;11.526;2022-09-29T05:17:19;4.87;;;2.27;;
22955;SDS011;40888;48.148;11.526;2022-09-29T05:19:45;3.07;;;2.17;;
22955;SDS011;40888;48.148;11.526;2022-09-29T05:22:11;2.33;;;2.00;;
22955;SDS011;40888;48.148;11.526;2022-09-29T05:24:37;2.40;;;2.10;;
22955;SDS011;40888;48.148;11.526;2022-09-29T05:27:03;5.17;;;2.03;;
22955;SDS011;40888;48.148;11.526;2022-09-29T05:29:30;2.43;;;1.97;;
22955;SDS011;40888;48.148;11.526;2022-09-29T05:31:56;4.37;;;2.30;;
22955;SDS011;40888;48.148;11.526;2022-09-29T05:34:22;2.40;;;2.20;;
22955;SDS011;40888;48.148;11.526;2022-09-29T05:36:48;2.80;;;2.23;;
22955;SDS011;40888;48.148;11.526;2022-09-29T05:39:15;3.10;;;2.50;;
22955;SDS011;40888;48.148;11.526;2022-09-29T05:41:41;2.67;;;2.47;;
22955;SDS011;40888;48.148;11.526;2022-09-29T05:44:08;2.77;;;2.57;;
22955;SDS011;40888;48.148;11.526;2022-09-29T05:46:34;3.00;;;2.50;;
22955;SDS011;40888;48.148;11.526;2022-09-29T05:49:01;2.50;;;2.30;;
22955;SDS011;40888;48.148;11.526;2022-09-29T05:51:27;2.77;;;2.00;;
22955;SDS011;40888;48.148;11.526;2022-09-29T05:53:53;2.57;;;2.17;;
22955;SDS011;40888;48.148;11.526;2022-09-29T05:56:24;2.37;;;2.27;;
22955;SDS011;40888;48.148;11.526;2022-09-29T05:58:50;2.70;;;2.50;;
22955;SDS011;40888;48.148;11.526;2022-09-29T06:01:17;3.40;;;2.40;;
22955;SDS011;40888;48.148;11.526;2022-09-29T06:03:44;2.43;;;2.23;;
22955;SDS011;40888;48.148;11.526;2022-09-29T06:06:14;3.23;;;2.73;;
22955;SDS011;40888;48.148;11.526;2022-09-29T06:08:41;3.40;;;2.30;;
22955;SDS011;40888;48.148;11.526;2022-09-29T06:13:36;3.40;;;2.37;;
22955;SDS011;40888;48.148;11.526;2022-09-29T06:16:02;3.67;;;2.40;;
22955;SDS011;40888;48.148;11.526;2022-09-29T06:18:29;3.60;;;3.20;;
22955;SDS011;40888;48.148;11.526;2022-09-29T06:20:59;4.43;;;2.80;;
22955;SDS011;40888;48.148;11.526;2022-09-29T06:23:25;3.40;;;3.10;;
22955;SDS011;40888;48.148;11.526;2022-09-29T06:25:55;5.33;;;2.77;;
22955;SDS011;40888;48.148;11.526;2022-09-29T06:28:21;3.57;;;3.17;;
22955;SDS011;40888;48.148;11.526;2022-09-29T06:30:47;4.63;;;3.90;;
22955;SDS011;40888;48.148;11.526;2022-09-29T06:33:14;4.17;;;3.73;;
22955;SDS011;40888;48.148;11.526;2022-09-29T06:35:46;4.43;;;4.03;;
22955;SDS011;40888;48.148;11.526;2022-09-29T06:38:32;4.67;;;4.27;;
22955;SDS011;40888;48.148;11.526;2022-09-29T06:40:58;3.00;;;2.80;;
22955;SDS011;40888;48.148;11.526;2022-09-29T06:43:25;3.17;;;2.87;;
22955;SDS011;40888;48.148;11.526;2022-09-29T06:45:52;3.40;;;3.10;;
22955;SDS011;40888;48.148;11.526;2022-09-29T06:48:18;3.87;;;3.20;;
22955;SDS011;40888;48.148;11.526;2022-09-29T06:50:44;3.03;;;2.83;;
22955;SDS011;40888;48.148;11.526;2022-09-29T06:53:10;6.03;;;2.90;;
22955;SDS011;40888;48.148;11.526;2022-09-29T06:55:36;4.20;;;2.93;;
22955;SDS011;40888;48.148;11.526;2022-09-29T06:58:03;5.93;;;2.37;;
22955;SDS011;40888;48.148;11.526;2022-09-29T07:00:29;2.93;;;2.50;;
22955;SDS011;40888;48.148;11.526;2022-09-29T07:02:56;3.17;;;2.40;;
22955;SDS011;40888;48.148;11.526;2022-09-29T07:05:23;3.00;;;2.70;;
22955;SDS011;40888;48.148;11.526;2022-09-29T07:07:49;2.17;;;2.03;;
22955;SDS011;40888;48.148;11.526;2022-09-29T07:10:15;2.87;;;2.57;;
22955;SDS011;40888;48.148;11.526;2022-09-29T07:12:41;2.97;;;2.77;;
22955;SDS011;40888;48.148;11.526;2022-09-29T07:15:11;3.73;;;3.33;;
22955;SDS011;40888;48.148;11.526;2022-09-29T07:17:38;4.57;;;3.13;;
22955;SDS011;40888;48.148;11.526;2022-09-29T07:20:04;3.20;;;3.00;;
22955;SDS011;40888;48.148;11.526;2022-09-29T07:22:31;2.90;;;2.70;;
22955;SDS011;40888;48.148;11.526;2022-09-29T07:24:57;2.13;;;1.83;;
22955;SDS011;40888;48.148;11.526;2022-09-29T07:27:23;2.20;;;2.10;;
22955;SDS011;40888;48.148;11.526;2022-09-29T07:29:50;4.40;;;1.80;;
22955;SDS011;40888;48.148;11.526;2022-09-29T07:32:17;1.93;;;1.80;;
22955;SDS011;40888;48.148;11.526;2022-09-29T07:34:43;3.27;;;2.30;;
22955;SDS011;40888;48.148;11.526;2022-09-29T07:37:12;5.17;;;2.60;;
22955;SDS011;40888;48.148;11.526;2022-09-29T07:39:38;3.70;;;2.03;;
22955;SDS011;40888;48.148;11.526;2022-09-29T07:42:04;2.67;;;2.43;;
22955;SDS011;40888;48.148;11.526;2022-09-29T07:44:31;4.40;;;2.70;;
22955;SDS011;40888;48.148;11.526;2022-09-29T07:46:57;3.17;;;2.87;;
22955;SDS011;40888;48.148;11.526;2022-09-29T07:49:23;3.50;;;2.33;;
22955;SDS011;40888;48.148;11.526;2022-09-29T07:51:49;2.47;;;2.10;;
22955;SDS011;40888;48.148;11.526;2022-09-29T07:54:16;2.63;;;2.00;;
22955;SDS011;40888;48.148;11.526;2022-09-29T07:56:42;2.10;;;1.90;;
22955;SDS011;40888;48.148;11.526;2022-09-29T07:59:09;2.37;;;2.00;;
22955;SDS011;40888;48.148;11.526;2022-09-29T08:01:35;2.67;;;2.07;;
22955;SDS011;40888;48.148;11.526;2022-09-29T08:04:02;6.00;;;2.50;;
22955;SDS011;40888;48.148;11.526;2022-09-29T08:06:28;3.83;;;2.20;;
22955;SDS011;40888;48.148;11.526;2022-09-29T08:08:54;2.23;;;2.03;;
22955;SDS011;40888;48.148;11.526;2022-09-29T08:11:21;2.23;;;2.03;;
22955;SDS011;40888;48.148;11.526;2022-09-29T08:13:49;4.17;;;2.20;;
22955;SDS011;40888;48.148;11.526;2022-09-29T08:16:16;2.40;;;2.00;;
22955;SDS011;40888;48.148;11.526;2022-09-29T08:18:42;1.70;;;1.60;;
22955;SDS011;40888;48.148;11.526;2022-09-29T08:21:09;3.33;;;1.60;;
22955;SDS011;40888;48.148;11.526;2022-09-29T08:23:37;3.40;;;1.80;;
22955;SDS011;40888;48.148;11.526;2022-09-29T08:26:04;2.97;;;1.50;;
22955;SDS011;40888;48.148;11.526;2022-09-29T08:28:31;1.50;;;1.40;;
22955;SDS011;40888;48.148;11.526;2022-09-29T08:31:01;3.00;;;1.73;;
22955;SDS011;40888;48.148;11.526;2022-09-29T08:33:27;1.70;;;1.50;;
22955;SDS011;40888;48.148;11.526;2022-09-29T08:35:58;2.03;;;1.53;;
22955;SDS011;40888;48.148;11.526;2022-09-29T08:38:25;2.57;;;1.63;;
22955;SDS011;40888;48.148;11.526;2022-09-29T08:40:51;1.63;;;1.10;;
22955;SDS011;40888;48.148;11.526;2022-09-29T08:43:53;1.30;;;1.20;;
22955;SDS011;40888;48.148;11.526;2022-09-29T08:48:38;1.97;;;1.87;;
22955;SDS011;40888;48.148;11.526;2022-09-29T08:51:11;1.90;;;1.70;;
22955;SDS011;40888;48.148;11.526;2022-09-29T08:53:42;1.63;;;1.53;;
22955;SDS011;40888;48.148;11.526;2022-09-29T08:56:14;1.53;;;1.43;;
22955;SDS011;40888;48.148;11.526;2022-09-29T08:58:40;1.40;;;1.30;;
22955;SDS011;40888;48.148;11.526;2022-09-29T09:03:40;2.50;;;1.40;;
22955;SDS011;40888;48.148;11.526;2022-09-29T09:06:10;1.37;;;1.27;;
22955;SDS011;40888;48.148;11.526;2022-09-29T09:16:25;2.73;;;1.50;;
22955;SDS011;40888;48.148;11.526;2022-09-29T09:19:12;4.93;;;1.73;;
22955;SDS011;40888;48.148;11.526;2022-09-29T09:21:51;3.67;;;1.57;;
22955;SDS011;40888;48.148;11.526;2022-09-29T09:24:26;1.50;;;1.40;;
22955;SDS011;40888;48.148;11.526;2022-09-29T09:26:53;3.27;;;1.53;;
22955;SDS011;40888;48.148;11.526;2022-09-29T09:32:00;1.70;;;1.10;;
22955;SDS011;40888;48.148;11.526;2022-09-29T09:34:31;1.07;;;0.97;;
22955;SDS011;40888;48.148;11.526;2022-09-29T09:37:01;1.53;;;1.43;;
22955;SDS011;40888;48.148;11.526;2022-09-29T09:39:33;1.90;;;1.37;;
22955;SDS011;40888;48.148;11.526;2022-09-29T09:42:02;1.30;;;1.27;;
22955;SDS011;40888;48.148;11.526;2022-09-29T09:44:32;1.50;;;1.40;;
22955;SDS011;40888;48.148;11.526;2022-09-29T09:47:01;1.97;;;1.80;;
22955;SDS011;40888;48.148;11.526;2022-09-29T09:49:31;1.63;;;1.53;;
22955;SDS011;40888;48.148;11.526;2022-09-29T09:52:00;2.20;;;1.80;;
22955;SDS011;40888;48.148;11.526;2022-09-29T09:54:34;2.07;;;1.93;;
22955;SDS011;40888;48.148;11.526;2022-09-29T09:57:08;2.67;;;1.80;;
22955;SDS011;40888;48.148;11.526;2022-09-29T10:02:15;1.97;;;1.87;;
22955;SDS011;40888;48.148;11.526;2022-09-29T10:04:42;2.50;;;1.80;;
22955;SDS011;40888;48.148;11.526;2022-09-29T10:07:08;1.80;;;1.70;;
22955;SDS011;40888;48.148;11.526;2022-09-29T10:09:35;2.80;;;2.10;;
22955;SDS011;40888;48.148;11.526;2022-09-29T10:12:01;1.70;;;1.60;;
22955;SDS011;40888;48.148;11.526;2022-09-29T10:14:27;3.60;;;1.73;;
22955;SDS011;40888;48.148;11.526;2022-09-29T10:16:58;1.70;;;1.60;;
22955;SDS011;40888;48.148;11.526;2022-09-29T10:22:12;2.93;;;1.50;;
22955;SDS011;40888;48.148;11.526;2022-09-29T10:24:38;2.93;;;1.77;;
22955;SDS011;40888;48.148;11.526;2022-09-29T10:27:04;1.63;;;1.53;;
22955;SDS011;40888;48.148;11.526;2022-09-29T10:29:38;1.80;;;1.70;;
22955;SDS011;40888;48.148;11.526;2022-09-29T10:32:12;1.80;;;1.50;;
22955;SDS011;40888;48.148;11.526;2022-09-29T10:34:40;1.63;;;1.50;;
22955;SDS011;40888;48.148;11.526;2022-09-29T10:37:17;1.67;;;1.57;;
22955;SDS011;40888;48.148;11.526;2022-09-29T10:39:45;2.27;;;1.60;;
22955;SDS011;40888;48.148;11.526;2022-09-29T10:42:19;1.50;;;1.40;;
22955;SDS011;40888;48.148;11.526;2022-09-29T10:44:50;2.13;;;1.60;;
22955;SDS011;40888;48.148;11.526;2022-09-29T10:47:17;2.10;;;1.47;;
22955;SDS011;40888;48.148;11.526;2022-09-29T10:49:44;1.73;;;1.33;;
22955;SDS011;40888;48.148;11.526;2022-09-29T10:52:28;1.30;;;1.20;;
22955;SDS011;40888;48.148;11.526;2022-09-29T10:54:58;1.40;;;1.30;;
22955;SDS011;40888;48.148;11.526;2022-09-29T10:57:28;1.87;;;1.27;;
22955;SDS011;40888;48.148;11.526;2022-09-29T10:59:56;2.43;;;1.40;;
22955;SDS011;40888;48.148;11.526;2022-09-29T11:04:48;1.40;;;1.23;;
22955;SDS011;40888;48.148;11.526;2022-09-29T11:07:15;1.73;;;1.13;;
22955;SDS011;40888;48.148;11.526;2022-09-29T11:09:44;2.13;;;1.30;;
22955;SDS011;40888;48.148;11.526;2022-09-29T11:12:27;1.50;;;1.40;;
22955;SDS011;40888;48.148;11.526;2022-09-29T11:14:54;2.23;;;1.27;;
22955;SDS011;40888;48.148;11.526;2022-09-29T11:17:30;2.47;;;1.17;;
22955;SDS011;40888;48.148;11.526;2022-09-29T11:20:00;1.93;;;1.20;;
22955;SDS011;40888;48.148;11.526;2022-09-29T11:25:13;1.90;;;1.03;;
22955;SDS011;40888;48.148;11.526;2022-09-29T11:37:00;0.70;;;0.70;;
22955;SDS011;40888;48.148;11.526;2022-09-29T11:39:00;1.30;;;1.10;;
22955;SDS011;40888;48.148;11.526;2022-09-29T11:49:43;1.33;;;1.20;;
22955;SDS011;40888;48.148;11.526;2022-09-29T11:55:01;1.03;;;1.03;;
22955;SDS011;40888;48.148;11.526;2022-09-29T12:00:13;1.00;;;1.00;;
22955;SDS011;40888;48.148;11.526;2022-09-29T12:05:32;1.73;;;1.10;;
22955;SDS011;40888;48.148;11.526;2022-09-29T12:15:51;1.20;;;1.20;;
22955;SDS011;40888;48.148;11.526;2022-09-29T12:18:20;1.23;;;1.13;;
22955;SDS011;40888;48.148;11.526;2022-09-29T12:20:49;1.67;;;1.20;;
22955;SDS011;40888;48.148;11.526;2022-09-29T12:23:17;1.60;;;1.50;;
22955;SDS011;40888;48.148;11.526;2022-09-29T12:28:35;1.53;;;1.43;;
22955;SDS011;40888;48.148;11.526;2022-09-29T12:31:05;3.03;;;1.60;;
22955;SDS011;40888;48.148;11.526;2022-09-29T12:33:39;1.63;;;1.40;;
22955;SDS011;40888;48.148;11.526;2022-09-29T12:36:09;1.63;;;1.00;;
22955;SDS011;40888;48.148;11.526;2022-09-29T12:39:03;1.10;;;1.10;;
22955;SDS011;40888;48.148;11.526;2022-09-29T12:41:32;1.00;;;1.00;;
22955;SDS011;40888;48.148;11.526;2022-09-29T12:49:18;2.10;;;1.80;;
22955;SDS011;40888;48.148;11.526;2022-09-29T12:51:47;1.90;;;1.80;;
22955;SDS011;40888;48.148;11.526;2022-09-29T12:54:24;2.20;;;1.80;;
22955;SDS011;40888;48.148;11.526;2022-09-29T12:57:03;2.50;;;2.30;;
22955;SDS011;40888;48.148;11.526;2022-09-29T12:59:37;3.23;;;2.30;;
22955;SDS011;40888;48.148;11.526;2022-09-29T13:02:27;3.60;;;2.10;;
22955;SDS011;40888;48.148;11.526;2022-09-29T13:10:16;3.03;;;2.20;;
22955;SDS011;40888;48.148;11.526;2022-09-29T13:18:00;3.57;;;2.10;;
22955;SDS011;40888;48.148;11.526;2022-09-29T13:20:33;2.47;;;2.23;;
22955;SDS011;40888;48.148;11.526;2022-09-29T13:25:52;2.37;;;1.87;;
22955;SDS011;40888;48.148;11.526;2022-09-29T13:30:52;3.50;;;3.07;;
22955;SDS011;40888;48.148;11.526;2022-09-29T13:33:20;2.83;;;2.50;;
22955;SDS011;40888;48.148;11.526;2022-09-29T13:35:48;2.70;;;2.13;;
22955;SDS011;40888;48.148;11.526;2022-09-29T13:38:16;2.90;;;2.70;;
22955;SDS011;40888;48.148;11.526;2022-09-29T13:43:37;2.70;;;2.50;;
22955;SDS011;40888;48.148;11.526;2022-09-29T13:54:12;5.50;;;2.90;;
22955;SDS011;40888;48.148;11.526;2022-09-29T13:56:39;3.20;;;2.73;;
22955;SDS011;40888;48.148;11.526;2022-09-29T13:59:10;2.90;;;2.70;;
22955;SDS011;40888;48.148;11.526;2022-09-29T14:01:38;3.83;;;3.47;;
22955;SDS011;40888;48.148;11.526;2022-09-29T14:06:49;3.23;;;3.03;;
22955;SDS011;40888;48.148;11.526;2022-09-29T14:09:16;2.93;;;2.73;;
22955;SDS011;40888;48.148;11.526;2022-09-29T14:11:47;4.40;;;3.57;;
22955;SDS011;40888;48.148;11.526;2022-09-29T14:14:15;3.53;;;3.23;;
22955;SDS011;40888;48.148;11.526;2022-09-29T14:16:44;5.07;;;3.93;;
22955;SDS011;40888;48.148;11.526;2022-09-29T14:21:58;6.00;;;3.97;;
22955;SDS011;40888;48.148;11.526;2022-09-29T14:37:41;5.87;;;4.63;;
22955;SDS011;40888;48.148;11.526;2022-09-29T14:40:07;5.87;;;5.23;;
22955;SDS011;40888;48.148;11.526;2022-09-29T14:48:38;5.80;;;5.30;;
22955;SDS011;40888;48.148;11.526;2022-09-29T14:51:34;6.33;;;5.73;;
22955;SDS011;40888;48.148;11.526;2022-09-29T14:54:36;5.80;;;5.40;;
22955;SDS011;40888;48.148;11.526;2022-09-29T14:57:11;5.27;;;4.77;;
22955;SDS011;40888;48.148;11.526;2022-09-29T14:59:50;5.20;;;4.80;;
22955;SDS011;40888;48.148;11.526;2022-09-29T15:02:22;5.40;;;4.90;;
22955;SDS011;40888;48.148;11.526;2022-09-29T15:04:49;4.70;;;4.30;;
22955;SDS011;40888;48.148;11.526;2022-09-29T15:07:19;4.30;;;3.90;;
22955;SDS011;40888;48.148;11.526;2022-09-29T15:09:50;5.10;;;4.60;;
22955;SDS011;40888;48.148;11.526;2022-09-29T15:12:21;5.70;;;4.70;;
22955;SDS011;40888;48.148;11.526;2022-09-29T15:14:50;5.80;;;5.20;;
22955;SDS011;40888;48.148;11.526;2022-09-29T15:20:12;6.57;;;5.97;;
22955;SDS011;40888;48.148;11.526;2022-09-29T15:23:03;6.67;;;6.13;;
22955;SDS011;40888;48.148;11.526;2022-09-29T15:25:34;7.83;;;7.03;;
22955;SDS011;40888;48.148;11.526;2022-09-29T15:28:02;8.57;;;7.10;;
22955;SDS011;40888;48.148;11.526;2022-09-29T15:30:29;8.23;;;7.43;;
22955;SDS011;40888;48.148;11.526;2022-09-29T15:33:12;8.17;;;7.37;;
22955;SDS011;40888;48.148;11.526;2022-09-29T15:35:42;8.23;;;7.47;;
22955;SDS011;40888;48.148;11.526;2022-09-29T15:38:15;8.90;;;8.00;;
22955;SDS011;40888;48.148;11.526;2022-09-29T15:40:41;8.60;;;7.70;;
22955;SDS011;40888;48.148;11.526;2022-09-29T15:43:20;8.53;;;7.83;;
22955;SDS011;40888;48.148;11.526;2022-09-29T15:45:54;8.47;;;7.57;;
22955;SDS011;40888;48.148;11.526;2022-09-29T15:48:27;8.30;;;7.60;;
22955;SDS011;40888;48.148;11.526;2022-09-29T15:50:53;7.23;;;6.53;;
22955;SDS011;40888;48.148;11.526;2022-09-29T15:53:20;7.63;;;6.90;;
22955;SDS011;40888;48.148;11.526;2022-09-29T15:55:48;6.73;;;6.07;;
22955;SDS011;40888;48.148;11.526;2022-09-29T15:58:41;7.20;;;6.60;;
22955;SDS011;40888;48.148;11.526;2022-09-29T16:01:03;7.50;;;6.90;;
22955;SDS011;40888;48.148;11.526;2022-09-29T16:08:38;9.20;;;8.43;;
22955;SDS011;40888;48.148;11.526;2022-09-29T16:11:07;6.87;;;6.27;;
22955;SDS011;40888;48.148;11.526;2022-09-29T16:13:35;7.37;;;6.77;;
22955;SDS011;40888;48.148;11.526;2022-09-29T16:16:05;7.73;;;7.03;;
22955;SDS011;40888;48.148;11.526;2022-09-29T16:21:04;9.23;;;8.23;;
22955;SDS011;40888;48.148;11.526;2022-09-29T16:23:35;9.73;;;8.33;;
22955;SDS011;40888;48.148;11.526;2022-09-29T16:28:36;8.83;;;8.00;;
22955;SDS011;40888;48.148;11.526;2022-09-29T16:31:04;8.67;;;7.97;;
22955;SDS011;40888;48.148;11.526;2022-09-29T16:33:32;8.67;;;7.87;;
22955;SDS011;40888;48.148;11.526;2022-09-29T16:36:03;8.40;;;7.60;;
22955;SDS011;40888;48.148;11.526;2022-09-29T16:38:34;8.30;;;7.63;;
22955;SDS011;40888;48.148;11.526;2022-09-29T16:41:07;8.20;;;7.50;;
22955;SDS011;40888;48.148;11.526;2022-09-29T16:43:34;7.63;;;6.93;;
22955;SDS011;40888;48.148;11.526;2022-09-29T16:46:02;8.00;;;7.40;;
22955;SDS011;40888;48.148;11.526;2022-09-29T16:48:31;8.40;;;7.70;;
22955;SDS011;40888;48.148;11.526;2022-09-29T16:51:02;7.63;;;7.03;;
22955;SDS011;40888;48.148;11.526;2022-09-29T16:53:31;7.43;;;6.83;;
22955;SDS011;40888;48.148;11.526;2022-09-29T16:56:06;7.53;;;6.93;;
22955;SDS011;40888;48.148;11.526;2022-09-29T16:58:33;6.97;;;6.47;;
22955;SDS011;40888;48.148;11.526;2022-09-29T17:01:00;7.10;;;6.50;;
22955;SDS011;40888;48.148;11.526;2022-09-29T17:03:27;7.80;;;7.20;;
22955;SDS011;40888;48.148;11.526;2022-09-29T17:05:55;9.20;;;8.33;;
22955;SDS011;40888;48.148;11.526;2022-09-29T17:08:23;7.97;;;7.30;;
22955;SDS011;40888;48.148;11.526;2022-09-29T17:10:50;7.90;;;7.27;;
22955;SDS011;40888;48.148;11.526;2022-09-29T17:13:17;7.47;;;6.87;;
22955;SDS011;40888;48.148;11.526;2022-09-29T17:15:45;8.40;;;7.60;;
22955;SDS011;40888;48.148;11.526;2022-09-29T17:18:14;8.20;;;7.50;;
22955;SDS011;40888;48.148;11.526;2022-09-29T17:20:40;7.87;;;7.27;;
22955;SDS011;40888;48.148;11.526;2022-09-29T17:23:06;8.27;;;7.50;;
22955;SDS011;40888;48.148;11.526;2022-09-29T17:25:34;8.20;;;7.50;;
22955;SDS011;40888;48.148;11.526;2022-09-29T17:28:01;8.33;;;7.63;;
22955;SDS011;40888;48.148;11.526;2022-09-29T17:30:54;8.57;;;7.87;;
22955;SDS011;40888;48.148;11.526;2022-09-29T17:33:21;7.97;;;7.27;;
22955;SDS011;40888;48.148;11.526;2022-09-29T17:35:48;9.00;;;8.17;;
22955;SDS011;40888;48.148;11.526;2022-09-29T17:38:15;9.17;;;8.27;;
22955;SDS011;40888;48.148;11.526;2022-09-29T17:40:58;9.43;;;8.60;;
22955;SDS011;40888;48.148;11.526;2022-09-29T17:43:28;9.00;;;8.20;;
22955;SDS011;40888;48.148;11.526;2022-09-29T17:45:58;10.63;;;9.77;;